Flight Track Log - Related Links

Times and Time Zones

All times are in EST time to prevent confusion due to time zone crossing. See the LMO8609 flight status page for this flight to view local times or setup timezone preferences in your user account.

Time Position Orientation Groundspeed Altitude Reporting Facility
EST Latitude Longitude Course Direction KTS MPH feet Rate Location/Type
Sat 05:17:41 PM 26.0378 -81.7631 97° East 219 252 4,200  Level Miami Center
Sat 05:18:41 PM 26.0297 -81.6886 97° East 211 243 6,800 2,700 Climbing Miami Center
Sat 05:19:41 PM 26.0433 -81.5944 81° East 257 296 9,600 2,100 Climbing Miami Center
Sat 05:20:41 PM 26.0528 -81.4978 84° East 300 345 11,000 700 Climbing Miami Center
Sat 05:21:41 PM 26.0644 -81.3872 83° East 350 403 11,000  Level Miami Center
Sat 05:22:41 PM 26.0767 -81.2675 83° East 381 438 11,000 -300 Level Miami Center
Sat 05:23:41 PM 26.0903 -81.1547 82° East 381 438 10,400 -938 Descending Miami Center
Sat 05:24:17 PM 26.0942 -81.0947 86° East 313 360 9,500 -1,500 Descending Miami Center
Sat 05:24:41 PM 26.0994 -81.0578 81° East 335 386 8,900 -1,837 Descending Miami Center
Sat 05:25:06 PM 26.1006 -81.0208 88° East 296 341 8,000 -1,600 Descending Miami Center
Sat 05:25:41 PM 26.1061 -80.9750 82° East 321 369 7,300 -1,279 Descending Miami Center
Sat 05:26:07 PM 26.1031 -80.9308 94° East 278 320 6,700 -900 Descending Miami Center
Sat 05:26:41 PM 26.1019 -80.8914 92° East 290 334 6,400 -447 Descending Miami Center
Sat 05:27:41 PM 26.0958 -80.8125 95° East 265 305 6,000 -614 Descending Miami Center
Sat 05:28:09 PM 26.1053 -80.7689 76° East 265 305 5,500 -800 Descending Miami Center
Sat 05:28:41 PM 26.1186 -80.7369 65° Northeast 248 285 5,200 -774 Descending Miami Center
Sat 05:29:11 PM 26.1306 -80.6889 75° East 271 312 4,700 -800 Descending Miami Center
Sat 05:29:41 PM 26.1397 -80.6544 73° East 261 300 4,400 -689 Descending Miami Center
Sat 05:30:12 PM 26.1514 -80.6061 75° East 279 321 4,000 -800 Descending Miami Center
Sat 05:30:41 PM 26.1606 -80.5742 72° East 266 306 3,600 -984 Descending Miami Center
Sat 05:31:13 PM 26.1722 -80.5283 74° East 266 306 3,000 -600 Descending Miami Center
Sat 05:31:41 PM 26.1833 -80.4961 69° East 266 306 3,000  Level Miami Center
Sat 05:32:14 PM 26.1928 -80.4500 77° East 263 303 3,000  Level Miami Center
Sat 05:32:41 PM 26.2019 -80.4181 72° East 260 299 3,000 -69 Level Miami Center
Sat 05:33:41 PM 26.2125 -80.3350 82° East 260 299 2,900 -505 Descending Miami Center
Sat 05:34:16 PM 26.2158 -80.2817 86° East 259 298 2,200 -1,067 Descending Miami Center
Sat 05:35:11 PM 26.2256 -80.2194 80° East 213 245 1,300 -492 Descending Miami Center
Sat 05:36:18 PM 26.2292 -80.1525 87° East 190 219 1,200 -419 Descending Miami Center
Sat 05:37:20 PM 26.1981 -80.1469 171° South 122 140 400 -774 Descending Miami Center
Sat 05:39:00 PM 26.1833 -80.1667 270° West  Level FlightAware Approximate

Login

Don't have an account? Register now (free) for customized features, flight alerts, and more!